Terminal Aerodrome Forecast
Issued by NWS

Home | Current Version | Previous Version | Text Only | Print | Product List | Glossary On
Versions: 1 2 3 4 5 6 7 8 9 10 11 12 13
000
FTUS44 KTSA 230520
TAFRVS
TAF
KRVS 230520Z 2306/2406 19003KT P6SM SCT250
     FM231800 14006KT P6SM SCT050 BKN250
     FM240000 04005KT P6SM SCT050 BKN120 PROB30 2400/2406 5SM TSRA
      BKN050CB=

USA.gov is the U.S. government's official web portal to all federal, state and local government web resources and services.